Time;durP1;ratioP1;P1;durP2;ratioP2;P2;SDS_P1;SDS_P2;PMS_P1;PMS_P2;Temp;Humidity;BMP_temperature;BMP_pressure;BME280_temperature;BME280_humidity;BME280_pressure;Samples;Min_cycle;Max_cycle;Signal;HPM_P1;HPM_P2
2023/10/05 00:01:27;;;;;;;3.45;1.88;;;;;;;13.16;100.00;101824.25;6301156;28;20143;-72
2023/10/05 00:04:30;;;;;;;4.28;1.88;;;;;;;13.21;100.00;101824.88;6301113;28;20059;-72
2023/10/05 00:07:32;;;;;;;5.45;1.77;;;;;;;13.21;100.00;101823.09;6300399;28;20133;-72
2023/10/05 00:10:34;;;;;;;7.22;1.63;;;;;;;13.20;100.00;101821.38;6300995;28;20052;-72
2023/10/05 00:13:35;;;;;;;6.95;1.70;;;;;;;13.19;100.00;101818.81;6301217;28;20463;-72
2023/10/05 00:16:37;;;;;;;6.43;1.83;;;;;;;13.18;100.00;101822.41;6301324;28;20044;-73
2023/10/05 00:19:39;;;;;;;8.82;1.98;;;;;;;13.19;100.00;101818.81;6300815;28;20050;-71
2023/10/05 00:22:43;;;;;;;8.77;1.77;;;;;;;13.21;100.00;101809.03;6301085;28;20056;-72
2023/10/05 00:25:45;;;;;;;5.57;1.65;;;;;;;13.20;100.00;101818.75;6300739;28;20451;-71
2023/10/05 00:28:53;;;;;;;3.20;1.63;;;;;;;13.15;100.00;101820.75;6300715;28;20155;-71
2023/10/05 00:31:59;;;;;;;6.43;1.52;;;;;;;13.14;100.00;101819.03;6300477;28;20364;-72
2023/10/05 00:35:14;;;;;;;4.80;1.80;;;;;;;13.15;100.00;101819.91;6300633;28;20245;-71
2023/10/05 00:38:18;;;;;;;6.55;1.83;;;;;;;13.14;100.00;101819.03;6292636;28;20045;-71
2023/10/05 00:41:20;;;;;;;12.20;2.05;;;;;;;13.14;100.00;101819.03;6300316;28;20347;-71
2023/10/05 00:44:23;;;;;;;4.63;1.70;;;;;;;13.16;100.00;101811.03;6300221;28;20114;-71
2023/10/05 00:47:25;;;;;;;5.43;1.83;;;;;;;13.17;100.00;101818.91;6300565;28;20102;-71
2023/10/05 00:50:27;;;;;;;2.85;1.52;;;;;;;13.21;100.00;101817.81;6300079;28;20052;-71
2023/10/05 00:53:32;;;;;;;5.30;1.30;;;;;;;13.20;100.00;101807.34;6300490;28;20045;-71
2023/10/05 00:56:35;;;;;;;5.57;1.63;;;;;;;13.20;100.00;101813.47;6300178;28;20333;-71
2023/10/05 00:59:37;;;;;;;2.97;1.42;;;;;;;13.11;100.00;101805.97;6300229;28;20053;-71
2023/10/05 01:02:46;;;;;;;6.55;1.42;;;;;;;13.15;100.00;101811.97;6300308;28;20081;-71
2023/10/05 01:05:51;;;;;;;3.67;1.52;;;;;;;13.18;100.00;101807.41;6300350;28;20055;-71
2023/10/05 01:08:59;;;;;;;3.38;1.30;;;;;;;13.16;100.00;101801.34;6300025;28;20139;-72
2023/10/05 01:12:13;;;;;;;5.47;1.50;;;;;;;13.21;100.00;101804.59;6300240;28;20053;-71
2023/10/05 01:15:19;;;;;;;4.60;1.30;;;;;;;13.28;100.00;101781.47;6299986;28;20356;-73
2023/10/05 01:18:23;;;;;;;4.30;1.10;;;;;;;13.31;100.00;101777.84;6301434;28;20131;-72
2023/10/05 01:21:25;;;;;;;5.30;2.30;;;;;;;13.26;100.00;101775.38;6304872;28;20141;-72
2023/10/05 01:24:29;;;;;;;7.63;1.48;;;;;;;13.29;100.00;101787.59;6305288;28;20048;-72
2023/10/05 01:27:30;;;;;;;9.60;2.25;;;;;;;13.30;100.00;101776.09;6305025;28;20052;-72
2023/10/05 01:30:33;;;;;;;9.57;1.85;;;;;;;13.33;100.00;101789.16;6304901;28;20052;-71
2023/10/05 01:33:35;;;;;;;7.22;1.35;;;;;;;13.36;100.00;101781.09;6304887;28;20049;-71
2023/10/05 01:36:36;;;;;;;2.88;1.42;;;;;;;13.39;100.00;101778.28;6304968;28;20064;-71
2023/10/05 01:39:43;;;;;;;4.82;1.52;;;;;;;13.38;100.00;101776.59;6304596;28;20060;-71
2023/10/05 01:42:47;;;;;;;5.55;1.50;;;;;;;13.40;100.00;101766.81;6304655;28;20141;-71
2023/10/05 01:45:48;;;;;;;5.50;2.00;;;;;;;13.45;100.00;101768.31;6303863;28;20044;-71
2023/10/05 01:48:51;;;;;;;5.70;1.58;;;;;;;13.44;100.00;101768.34;6304144;28;20053;-71
2023/10/05 01:51:53;;;;;;;6.70;2.10;;;;;;;13.42;100.00;101768.44;6304538;28;20055;-71
2023/10/05 01:54:56;;;;;;;7.57;2.13;;;;;;;13.39;100.00;101765.09;6304197;28;20048;-71
2023/10/05 01:57:58;;;;;;;4.28;1.40;;;;;;;13.42;100.00;101760.53;6304240;28;20051;-71
2023/10/05 02:01:00;;;;;;;5.68;1.80;;;;;;;13.41;100.00;101755.31;6304109;28;20048;-71
2023/10/05 02:04:02;;;;;;;9.25;1.90;;;;;;;13.43;100.00;101753.44;6304120;28;20411;-70
2023/10/05 02:07:03;;;;;;;6.95;1.73;;;;;;;13.42;100.00;101757.88;6303893;28;20131;-70
2023/10/05 02:10:10;;;;;;;7.45;1.95;;;;;;;13.42;100.00;101752.59;6303902;28;20048;-71
2023/10/05 02:13:12;;;;;;;7.25;1.52;;;;;;;13.45;100.00;101757.75;6304060;28;20139;-71
2023/10/05 02:16:17;;;;;;;5.53;1.55;;;;;;;13.44;100.00;101758.69;6303837;28;20051;-70
2023/10/05 02:19:19;;;;;;;10.15;2.33;;;;;;;13.43;100.00;101756.94;6303748;28;20056;-71
2023/10/05 02:22:22;;;;;;;3.15;1.40;;;;;;;13.43;100.00;101756.09;6303695;28;20163;-70
2023/10/05 02:25:33;;;;;;;6.13;1.80;;;;;;;13.43;100.00;101754.31;6303750;28;20049;-71
2023/10/05 02:28:38;;;;;;;6.68;1.58;;;;;;;13.43;100.00;101758.72;6303409;28;20051;-71
2023/10/05 02:31:50;;;;;;;4.00;1.33;;;;;;;13.39;100.00;101752.75;6302769;28;20052;-71
2023/10/05 02:35:00;;;;;;;7.75;1.95;;;;;;;13.42;100.00;101749.13;6303118;28;20463;-71
2023/10/05 02:38:05;;;;;;;8.43;1.80;;;;;;;13.39;100.00;101755.38;6302327;28;20044;-70
2023/10/05 02:41:09;;;;;;;9.23;2.60;;;;;;;13.37;100.00;101751.13;6302349;28;20060;-71
2023/10/05 02:44:17;;;;;;;4.80;1.50;;;;;;;13.38;100.00;101752.81;6302680;28;20110;-71
2023/10/05 02:47:23;;;;;;;6.38;1.90;;;;;;;13.32;100.00;101746.06;6302625;28;20048;-71
2023/10/05 02:50:24;;;;;;;4.15;1.67;;;;;;;13.38;100.00;101750.19;6302501;28;20059;-71
2023/10/05 02:53:27;;;;;;;6.38;1.60;;;;;;;13.39;100.00;101757.16;6302568;28;20131;-70
2023/10/05 02:56:31;;;;;;;6.88;1.67;;;;;;;13.41;100.00;101752.69;6302662;28;20125;-70
2023/10/05 02:59:34;;;;;;;5.70;1.50;;;;;;;13.41;100.00;101763.25;6299370;28;20055;-71
2023/10/05 03:02:45;;;;;;;6.38;1.63;;;;;;;13.41;100.00;101763.25;6302151;28;20048;-70
2023/10/05 03:05:47;;;;;;;5.38;1.63;;;;;;;13.43;100.00;101749.03;6302260;28;20127;-71
2023/10/05 03:08:54;;;;;;;6.15;1.80;;;;;;;13.42;100.00;101755.25;6302347;28;20131;-71
2023/10/05 03:11:57;;;;;;;4.38;1.40;;;;;;;13.45;100.00;101754.25;6317180;22;20543;-79
2023/10/05 03:15:04;;;;;;;5.20;1.48;;;;;;;13.43;100.00;101743.75;6277600;28;20369;-78
2023/10/05 03:18:06;;;;;;;5.95;2.13;;;;;;;13.43;100.00;101743.75;6299522;28;20084;-78
2023/10/05 03:21:13;;;;;;;4.05;1.70;;;;;;;13.44;100.00;101745.47;6290606;28;20049;-78
2023/10/05 03:24:14;;;;;;;5.75;1.98;;;;;;;13.50;100.00;101744.31;6277562;28;20453;-79
2023/10/05 03:27:18;;;;;;;5.07;1.52;;;;;;;13.49;100.00;101732.03;6277556;28;20110;-79
2023/10/05 03:30:23;;;;;;;12.30;2.22;;;;;;;13.47;100.00;101735.69;6277078;28;20084;-78
2023/10/05 03:33:27;;;;;;;4.88;1.48;;;;;;;13.44;100.00;101728.75;6277433;28;20114;-77
2023/10/05 03:36:33;;;;;;;6.40;1.70;;;;;;;13.53;100.00;101730.94;6277300;28;20068;-79
2023/10/05 03:39:40;;;;;;;3.88;1.52;;;;;;;13.50;100.00;101727.63;6276908;28;20365;-79
2023/10/05 03:42:46;;;;;;;3.45;1.83;;;;;;;13.49;100.00;101728.53;6275912;28;20370;-79
2023/10/05 03:45:47;;;;;;;7.65;2.33;;;;;;;13.47;100.00;101725.13;6296948;28;20135;-80
2023/10/05 03:48:49;;;;;;;5.10;1.65;;;;;;;13.49;100.00;101725.88;6301317;28;20355;-78
2023/10/05 03:51:51;;;;;;;10.45;1.83;;;;;;;13.52;100.00;101731.88;6301646;28;20060;-79
2023/10/05 03:54:53;;;;;;;8.38;1.65;;;;;;;13.51;100.00;101734.59;6301541;28;20122;-80
2023/10/05 03:57:57;;;;;;;9.27;2.03;;;;;;;13.51;100.00;101721.41;6301665;28;20129;-79
2023/10/05 04:00:58;;;;;;;10.65;2.63;;;;;;;13.49;100.00;101724.13;6301467;28;20139;-78
2023/10/05 04:04:04;;;;;;;6.78;1.70;;;;;;;13.50;100.00;101724.97;6301253;28;20051;-79
2023/10/05 04:07:06;;;;;;;3.55;1.92;;;;;;;13.42;100.00;101734.13;6301573;28;20055;-80
2023/10/05 04:10:13;;;;;;;6.97;1.90;;;;;;;13.45;100.00;101723.41;6300754;28;20052;-79
2023/10/05 04:13:18;;;;;;;8.23;1.92;;;;;;;13.42;100.00;101725.34;6301198;28;20084;-79
2023/10/05 04:16:28;;;;;;;7.10;1.63;;;;;;;13.40;100.00;101720.16;6299636;28;20051;-78
2023/10/05 04:19:31;;;;;;;3.40;1.60;;;;;;;13.41;100.00;101721.00;6300065;28;20079;-78
2023/10/05 04:22:32;;;;;;;3.70;1.30;;;;;;;13.45;100.00;101728.69;6300885;28;20083;-79
2023/10/05 04:25:35;;;;;;;7.97;2.20;;;;;;;13.45;100.00;101723.41;6300615;28;20075;-78
2023/10/05 04:28:41;;;;;;;9.25;1.88;;;;;;;13.42;100.00;101722.72;6300678;28;20049;-78
2023/10/05 04:31:48;;;;;;;8.35;1.52;;;;;;;13.41;100.00;101729.78;6300412;28;20127;-78
2023/10/05 04:34:50;;;;;;;9.68;2.03;;;;;;;13.41;100.00;101729.78;6300915;28;20345;-79
2023/10/05 04:37:51;;;;;;;8.75;2.00;;;;;;;13.41;100.00;101718.38;6300969;28;20045;-78
2023/10/05 04:40:54;;;;;;;13.02;2.22;;;;;;;13.39;100.00;101728.13;6300733;28;20428;-78
2023/10/05 04:43:57;;;;;;;2.70;1.38;;;;;;;13.36;100.00;101726.50;6300429;28;20185;-78
2023/10/05 04:46:59;;;;;;;7.70;2.05;;;;;;;13.26;100.00;101722.59;6300620;28;20044;-77
2023/10/05 04:50:00;;;;;;;7.32;1.58;;;;;;;13.24;100.00;101724.47;6300179;28;20455;-78
2023/10/05 04:53:03;;;;;;;2.80;1.60;;;;;;;13.24;100.00;101718.34;6300407;28;20456;-79
2023/10/05 04:56:12;;;;;;;5.57;1.85;;;;;;;13.20;100.00;101712.31;6300423;28;20369;-78
2023/10/05 04:59:48;;;;;;;7.45;1.95;;;;;;;13.17;100.00;101717.72;6300482;28;20078;-78
2023/10/05 05:03:05;;;;;;;13.63;1.92;;;;;;;13.15;100.00;101714.31;6300537;28;20432;-78
2023/10/05 05:06:10;;;;;;;4.60;1.67;;;;;;;13.13;100.00;101713.56;6300516;28;20135;-79
2023/10/05 05:09:12;;;;;;;5.25;1.85;;;;;;;13.08;100.00;101713.78;6300211;28;20044;-78
2023/10/05 05:12:17;;;;;;;6.85;2.10;;;;;;;13.08;100.00;101720.81;6300155;28;20122;-78
2023/10/05 05:15:19;;;;;;;5.18;2.30;;;;;;;13.08;100.00;101718.16;6300690;28;20523;-78
2023/10/05 05:18:22;;;;;;;8.13;2.00;;;;;;;13.04;100.00;101719.28;6299898;28;20348;-78
2023/10/05 05:21:23;;;;;;;5.20;2.25;;;;;;;13.05;100.00;101729.75;6299927;28;20697;-79
2023/10/05 05:24:28;;;;;;;9.20;1.88;;;;;;;13.04;100.00;101725.41;6300320;28;20052;-79
2023/10/05 05:27:30;;;;;;;9.73;2.35;;;;;;;13.04;100.00;101728.03;6300096;28;20052;-78
2023/10/05 05:30:36;;;;;;;3.92;1.98;;;;;;;13.02;100.00;101726.41;6299921;28;20045;-79
2023/10/05 05:33:38;;;;;;;9.55;2.20;;;;;;;13.07;100.00;101713.81;6300201;28;20057;-79
2023/10/05 05:36:40;;;;;;;9.90;2.25;;;;;;;13.05;100.00;101723.63;6299785;28;20055;-79
2023/10/05 05:39:42;;;;;;;7.05;2.05;;;;;;;13.11;100.00;101718.88;6299884;28;20446;-79
2023/10/05 05:42:45;;;;;;;7.15;2.00;;;;;;;13.15;100.00;101720.44;6299989;28;20084;-79
2023/10/05 05:45:47;;;;;;;5.95;2.20;;;;;;;13.14;100.00;101721.38;6299624;28;20051;-79
2023/10/05 05:48:52;;;;;;;5.05;1.70;;;;;;;13.18;100.00;101730.03;6299375;28;20487;-80
2023/10/05 05:51:55;;;;;;;2.75;1.52;;;;;;;13.16;100.00;101722.16;6299629;28;20044;-79
2023/10/05 05:55:03;;;;;;;3.47;1.63;;;;;;;13.19;100.00;101723.81;6299650;28;20056;-78
2023/10/05 05:58:04;;;;;;;5.60;1.73;;;;;;;13.17;100.00;101720.38;6299609;28;20109;-79
2023/10/05 06:01:08;;;;;;;5.53;1.52;;;;;;;13.17;100.00;101721.25;6299231;28;20443;-79
2023/10/05 06:04:09;;;;;;;6.47;1.77;;;;;;;13.12;100.00;101717.94;6299708;28;20436;-80
2023/10/05 06:07:13;;;;;;;8.65;1.83;;;;;;;13.12;100.00;101715.31;6303397;28;20376;-79
2023/10/05 06:10:14;;;;;;;6.47;1.67;;;;;;;13.12;100.00;101725.88;6303987;28;20048;-79
2023/10/05 06:13:17;;;;;;;4.85;1.90;;;;;;;13.08;100.00;101713.78;6303781;28;20044;-79
2023/10/05 06:16:20;;;;;;;3.40;1.25;;;;;;;13.09;100.00;101718.13;6304048;28;20049;-78
2023/10/05 06:19:23;;;;;;;9.05;2.00;;;;;;;13.13;100.00;101716.19;6303621;28;20127;-78
2023/10/05 06:22:25;;;;;;;5.35;1.95;;;;;;;13.15;100.00;101728.38;6301201;28;20083;-80
2023/10/05 06:25:27;;;;;;;3.92;1.63;;;;;;;13.19;100.00;101727.28;6299794;28;20158;-79
2023/10/05 06:28:28;;;;;;;7.97;2.17;;;;;;;13.23;100.00;101733.31;6300491;28;20048;-78
2023/10/05 06:31:31;;;;;;;8.23;2.28;;;;;;;13.26;100.00;101727.88;6292779;28;20055;-79
2023/10/05 06:34:34;;;;;;;5.10;2.15;;;;;;;13.25;100.00;101733.22;6311191;28;20055;-79
2023/10/05 06:37:37;;;;;;;5.95;1.50;;;;;;;13.25;100.00;101731.44;6313938;28;20130;-78
2023/10/05 06:40:38;;;;;;;3.58;1.63;;;;;;;13.29;100.00;101724.25;6289950;28;20052;-79
2023/10/05 06:43:39;;;;;;;6.15;2.13;;;;;;;13.31;100.00;101739.09;6305502;28;20052;-79
2023/10/05 06:46:42;;;;;;;4.95;2.58;;;;;;;13.25;100.00;101736.72;6302832;28;20048;-77
2023/10/05 06:49:44;;;;;;;5.43;1.90;;;;;;;13.31;100.00;101733.81;6302625;28;20076;-78
2023/10/05 06:52:46;;;;;;;7.20;2.58;;;;;;;13.35;100.00;101748.56;6303137;28;20049;-79
2023/10/05 06:55:48;;;;;;;6.70;2.15;;;;;;;13.37;100.00;101749.34;6301086;28;20086;-78
2023/10/05 06:58:49;;;;;;;4.45;2.10;;;;;;;13.44;100.00;101750.75;6302691;28;20047;-79
2023/10/05 07:01:52;;;;;;;7.00;2.25;;;;;;;13.50;100.00;101756.66;6302502;28;20055;-79
2023/10/05 07:04:53;;;;;;;5.45;2.38;;;;;;;13.55;100.00;101762.56;6302950;28;20128;-80
2023/10/05 07:07:55;;;;;;;7.72;2.30;;;;;;;13.61;100.00;101757.81;6300392;28;20080;-77
2023/10/05 07:10:56;;;;;;;8.18;2.38;;;;;;;13.63;100.00;101766.53;6296536;28;20044;-80
2023/10/05 07:13:58;;;;;;;14.32;3.08;;;;;;;13.67;100.00;101760.19;6301545;28;20052;-78
2023/10/05 07:17:01;;;;;;;8.23;2.30;;;;;;;13.74;100.00;101767.78;6301994;28;20052;-78
2023/10/05 07:20:04;;;;;;;12.13;3.15;;;;;;;13.79;100.00;101771.03;6301733;28;20076;-77
2023/10/05 07:23:07;;;;;;;6.65;2.20;;;;;;;13.84;100.00;101761.94;6302063;28;20360;-77
2023/10/05 07:26:10;;;;;;;8.25;2.45;;;;;;;13.87;100.00;101760.94;6302242;28;20056;-81
2023/10/05 07:29:12;;;;;;;10.73;3.03;;;;;;;13.88;100.00;101760.00;6300527;28;20055;-77
2023/10/05 07:32:16;;;;;;;7.63;2.25;;;;;;;13.87;100.00;101768.88;6301213;28;20105;-78
2023/10/05 07:35:17;;;;;;;9.20;2.45;;;;;;;13.91;100.00;101768.66;6301759;28;20048;-78
2023/10/05 07:38:19;;;;;;;7.75;2.10;;;;;;;13.95;100.00;101774.63;6301794;28;20079;-78
2023/10/05 07:41:20;;;;;;;7.28;2.67;;;;;;;13.96;100.00;101779.84;6300458;28;20044;-78
2023/10/05 07:44:22;;;;;;;8.23;2.45;;;;;;;13.99;100.00;101784.13;6308935;28;20041;-78
2023/10/05 07:47:25;;;;;;;3.95;2.00;;;;;;;14.06;100.00;101790.78;6309539;28;20447;-82
2023/10/05 07:50:26;;;;;;;5.15;1.88;;;;;;;14.07;100.00;101791.63;6301509;28;20052;-81
2023/10/05 07:53:28;;;;;;;7.65;2.17;;;;;;;14.09;100.00;101821.50;6301230;28;20052;-78
2023/10/05 07:56:32;;;;;;;8.57;2.13;;;;;;;14.17;100.00;101801.69;6301107;28;20048;-81
2023/10/05 07:59:34;;;;;;;6.40;2.10;;;;;;;14.18;100.00;101802.53;6300934;28;20056;-79
2023/10/05 08:02:37;;;;;;;5.15;2.00;;;;;;;14.28;100.00;101834.63;6300947;28;20056;-79
2023/10/05 08:05:38;;;;;;;9.52;2.28;;;;;;;14.24;100.00;101820.72;6299773;28;20124;-78
2023/10/05 08:08:41;;;;;;;6.45;1.80;;;;;;;14.27;100.00;101820.56;6295731;28;20051;-81
2023/10/05 08:11:43;;;;;;;4.38;2.58;;;;;;;14.32;100.00;101825.63;6296456;28;20057;-78
2023/10/05 08:14:45;;;;;;;7.05;2.17;;;;;;;14.34;100.00;101821.09;6298898;28;20040;-76
2023/10/05 08:17:49;;;;;;;9.52;2.17;;;;;;;14.46;100.00;101831.88;6300320;28;20052;-80
2023/10/05 08:20:50;;;;;;;7.88;2.22;;;;;;;14.47;100.00;101830.09;6300677;28;20450;-78
2023/10/05 08:23:52;;;;;;;3.63;1.80;;;;;;;14.56;100.00;101842.03;6300452;28;20078;-78
2023/10/05 08:26:56;;;;;;;9.23;1.55;;;;;;;14.59;100.00;101841.88;6300843;28;20453;-78
2023/10/05 08:29:58;;;;;;;8.95;2.05;;;;;;;14.53;100.00;101848.31;6299971;28;20078;-79
2023/10/05 08:33:09;;;;;;;7.38;1.88;;;;;;;14.57;100.00;101846.38;6300549;28;20044;-78
2023/10/05 08:36:12;;;;;;;3.58;1.48;;;;;;;14.64;100.00;101850.41;6300837;28;20044;-78
2023/10/05 08:39:14;;;;;;;6.35;2.00;;;;;;;14.67;100.00;101847.59;6300381;28;20067;-78
2023/10/05 08:42:16;;;;;;;7.20;1.52;;;;;;;14.71;100.00;101851.78;6300344;28;20049;-80
2023/10/05 08:45:23;;;;;;;2.60;1.63;;;;;;;14.70;100.00;101858.88;6300565;28;20048;-78
2023/10/05 08:48:30;;;;;;;12.02;1.70;;;;;;;14.82;100.00;101861.81;6300244;28;20071;-79
2023/10/05 08:51:31;;;;;;;6.55;2.20;;;;;;;14.89;100.00;101863.19;6300370;28;20048;-78
2023/10/05 08:54:33;;;;;;;5.50;1.50;;;;;;;14.91;100.00;101856.88;6300067;28;20044;-79
2023/10/05 08:57:34;;;;;;;12.20;1.45;;;;;;;14.92;100.00;101865.69;6300571;28;20109;-78
2023/10/05 09:00:39;;;;;;;10.20;1.88;;;;;;;14.88;100.00;101870.28;6299914;28;20178;-78
2023/10/05 09:03:42;;;;;;;3.65;1.48;;;;;;;15.00;100.00;101863.47;6300334;28;20044;-79
2023/10/05 09:06:48;;;;;;;5.88;2.08;;;;;;;15.05;100.00;101872.03;6300158;28;20086;-79
2023/10/05 09:09:54;;;;;;;3.95;1.25;;;;;;;15.08;100.00;101884.22;6300045;28;20083;-78
2023/10/05 09:12:58;;;;;;;15.40;2.22;;;;;;;15.19;100.00;101873.94;6299882;28;20437;-74
2023/10/05 09:16:00;;;;;;;3.38;1.50;;;;;;;15.26;100.00;101888.56;6300128;28;20048;-74
2023/10/05 09:19:02;;;;;;;5.63;1.15;;;;;;;15.15;100.00;101885.63;6299839;28;20044;-75
2023/10/05 09:22:12;;;;;;;4.18;1.50;;;;;;;15.16;100.00;101888.16;6299845;28;20048;-74
2023/10/05 09:25:15;;;;;;;5.72;1.77;;;;;;;15.22;100.00;101900.25;6300039;28;20076;-74
2023/10/05 09:28:33;;;;;;;7.13;1.63;;;;;;;15.20;100.00;101905.59;6300068;28;20060;-74
2023/10/05 09:31:36;;;;;;;7.40;1.38;;;;;;;15.19;100.00;101898.59;6299648;28;20075;-73
2023/10/05 09:34:44;;;;;;;4.55;1.55;;;;;;;15.24;100.00;101903.66;6300254;28;20055;-74
2023/10/05 09:37:46;;;;;;;6.38;1.50;;;;;;;15.34;100.00;101893.41;6299725;28;20183;-74
2023/10/05 09:40:48;;;;;;;10.15;1.80;;;;;;;15.36;100.00;101905.63;6303302;28;20044;-74
2023/10/05 09:43:58;;;;;;;9.63;1.90;;;;;;;15.45;100.00;101902.47;6304595;28;20059;-74
2023/10/05 09:47:02;;;;;;;10.18;1.90;;;;;;;15.45;100.00;101897.19;6305127;28;20056;-75
2023/10/05 09:50:10;;;;;;;3.47;1.48;;;;;;;15.58;100.00;101901.78;6304251;28;20048;-74
2023/10/05 09:53:13;;;;;;;10.90;2.03;;;;;;;15.62;100.00;101901.53;6297489;28;20048;-75
2023/10/05 09:56:19;;;;;;;4.85;1.42;;;;;;;15.59;100.00;101904.38;6303601;28;20056;-75
2023/10/05 09:59:22;;;;;;;5.50;1.35;;;;;;;15.64;100.00;101896.19;6304072;28;20056;-75
2023/10/05 10:02:26;;;;;;;11.43;1.63;;;;;;;15.68;100.00;101909.19;6295508;28;20055;-75
2023/10/05 10:05:33;;;;;;;8.20;1.80;;;;;;;15.77;100.00;101914.91;6304123;28;20060;-75
2023/10/05 10:08:42;;;;;;;4.88;1.60;;;;;;;15.83;100.00;101909.25;6303359;28;20129;-74
2023/10/05 10:11:44;;;;;;;6.47;1.48;;;;;;;15.86;100.00;101909.09;6303372;28;20466;-74
2023/10/05 10:14:50;;;;;;;6.43;1.33;;;;;;;15.89;100.00;101911.53;6303821;28;20340;-75
2023/10/05 10:18:03;;;;;;;11.15;1.60;;;;;;;15.89;100.00;101914.19;6299169;28;20048;-75
2023/10/05 10:21:12;;;;;;;7.10;2.00;;;;;;;15.83;100.00;101918.06;6303604;28;20063;-77
2023/10/05 10:24:17;;;;;;;3.42;1.38;;;;;;;15.88;100.00;101917.78;6303470;28;20070;-75
2023/10/05 10:27:27;;;;;;;9.60;1.85;;;;;;;15.91;100.00;101917.63;6303762;28;20053;-75
2023/10/05 10:30:28;;;;;;;6.05;1.27;;;;;;;15.96;100.00;101915.56;6303488;28;20051;-76
2023/10/05 10:33:30;;;;;;;5.95;2.13;;;;;;;16.03;100.00;101924.88;6303400;28;20398;-76
2023/10/05 10:36:52;;;;;;;7.88;1.92;;;;;;;16.12;100.00;101928.78;6303081;28;20048;-76
2023/10/05 10:39:56;;;;;;;8.10;2.00;;;;;;;16.19;100.00;101922.19;6303636;28;20051;-76
2023/10/05 10:43:06;;;;;;;9.18;1.75;;;;;;;16.21;100.00;101918.53;6301918;28;20059;-75
2023/10/05 10:46:13;;;;;;;7.25;1.80;;;;;;;16.26;100.00;101935.94;6291193;28;20128;-75
2023/10/05 10:49:19;;;;;;;8.15;1.55;;;;;;;16.31;100.00;101931.25;6298732;28;20361;-76
2023/10/05 10:52:22;;;;;;;4.70;1.25;;;;;;;16.32;100.00;101938.25;6293950;28;20063;-75
2023/10/05 10:55:31;;;;;;;7.80;1.48;;;;;;;16.33;100.00;101929.34;6301242;28;20053;-76
2023/10/05 10:58:34;;;;;;;;;;;;;;;16.28;100.00;101934.06;6302735;28;20110;-75
2023/10/05 11:01:41;;;;;;;4.60;1.25;;;;;;;16.35;100.00;101930.09;6295183;28;19982;-75
2023/10/05 11:04:43;;;;;;;8.43;1.33;;;;;;;16.35;100.00;101933.63;6300654;28;20049;-75
2023/10/05 11:07:49;;;;;;;5.65;1.17;;;;;;;16.45;100.00;101942.75;6301650;28;20376;-75
2023/10/05 11:11:09;;;;;;;6.95;2.28;;;;;;;16.45;100.00;101936.59;6302339;28;20598;-75
2023/10/05 11:14:21;;;;;;;9.93;2.58;;;;;;;16.59;100.00;101947.25;6302532;28;20055;-76
2023/10/05 11:17:30;;;;;;;3.42;1.42;;;;;;;16.63;100.00;101935.50;6302369;28;20377;-76
2023/10/05 11:20:36;;;;;;;6.82;1.17;;;;;;;16.64;100.00;101945.16;6302035;28;20185;-73
2023/10/05 11:23:47;;;;;;;4.40;1.20;;;;;;;16.51;100.00;101946.84;6301831;28;20444;-73
2023/10/05 11:27:05;;;;;;;5.75;1.27;;;;;;;16.52;100.00;101948.53;6302142;28;20052;-74
2023/10/05 11:30:08;;;;;;;5.65;1.65;;;;;;;16.44;100.00;101951.66;6300577;28;20040;-74
2023/10/05 11:33:15;;;;;;;12.75;2.13;;;;;;;16.47;100.00;101946.16;6301761;28;20394;-74
2023/10/05 11:36:21;;;;;;;9.18;2.45;;;;;;;16.39;100.00;101950.19;6302000;28;20044;-74
2023/10/05 11:39:27;;;;;;;5.68;1.25;;;;;;;16.11;100.00;101951.81;6301880;28;20139;-74
2023/10/05 11:42:36;;;;;;;5.38;1.45;;;;;;;15.88;100.00;101952.25;6301916;28;20056;-73
2023/10/05 11:45:38;;;;;;;4.68;1.75;;;;;;;15.96;100.00;101948.25;6302244;28;20090;-73
2023/10/05 11:48:48;;;;;;;6.80;1.50;;;;;;;16.04;100.00;101939.84;6301610;28;20067;-74
2023/10/05 11:51:56;;;;;;;8.07;2.47;;;;;;;16.20;100.00;101939.81;6301239;28;20075;-74
2023/10/05 11:54:59;;;;;;;3.95;1.67;;;;;;;16.39;100.00;101937.78;6301351;28;20048;-74
2023/10/05 11:58:01;;;;;;;7.38;1.40;;;;;;;16.46;100.00;101941.81;6301715;28;20052;-76
2023/10/05 12:01:04;;;;;;;6.22;1.60;;;;;;;16.41;100.00;101943.88;6300181;28;20337;-74
2023/10/05 12:04:07;;;;;;;6.80;1.98;;;;;;;15.98;100.00;101949.00;6300270;28;20048;-73
2023/10/05 12:07:12;;;;;;;10.48;2.30;;;;;;;15.85;100.00;101947.13;6301225;28;20437;-74
2023/10/05 12:10:15;;;;;;;9.70;1.67;;;;;;;15.74;100.00;101947.72;6295087;28;20588;-72
2023/10/05 12:13:16;;;;;;;6.07;1.73;;;;;;;15.79;100.00;101953.63;6298684;28;20407;-74
2023/10/05 12:16:18;;;;;;;6.30;1.27;;;;;;;15.79;100.00;101958.94;6295176;28;20056;-75
2023/10/05 12:19:27;;;;;;;8.18;1.65;;;;;;;15.61;100.00;101960.78;6296068;28;20056;-75
2023/10/05 12:22:33;;;;;;;5.35;1.90;;;;;;;15.28;100.00;101965.25;6294003;28;20403;-74
2023/10/05 12:25:36;;;;;;;2.35;1.38;;;;;;;15.08;100.00;101969.84;6300771;28;20641;-74
2023/10/05 12:28:40;;;;;;;5.20;2.05;;;;;;;14.89;100.00;101969.06;6300581;28;20341;-73
2023/10/05 12:31:42;;;;;;;6.43;2.35;;;;;;;14.82;100.00;101970.31;6300693;28;20048;-72
2023/10/05 12:34:47;;;;;;;7.20;2.10;;;;;;;14.92;100.00;101968.91;6300489;28;20044;-74
2023/10/05 12:37:49;;;;;;;4.90;2.10;;;;;;;14.98;100.00;101972.06;6300625;28;20376;-74
2023/10/05 12:40:52;;;;;;;8.32;2.90;;;;;;;15.08;100.00;101977.78;6300311;28;20075;-75
2023/10/05 12:43:53;;;;;;;10.98;2.35;;;;;;;15.05;100.00;101985.00;6300728;28;20052;-74
2023/10/05 12:46:55;;;;;;;6.70;2.55;;;;;;;15.14;100.00;101979.25;6300805;28;20080;-75
2023/10/05 12:49:56;;;;;;;6.25;2.17;;;;;;;15.08;100.00;101972.47;6300077;28;20047;-74
2023/10/05 12:52:58;;;;;;;9.07;2.38;;;;;;;15.12;100.00;101989.03;6297363;28;20044;-74
2023/10/05 12:56:01;;;;;;;9.55;2.53;;;;;;;15.09;100.00;101994.50;6300341;28;20060;-73
2023/10/05 12:59:03;;;;;;;5.78;1.80;;;;;;;15.13;100.00;101993.41;6300560;28;20094;-73
2023/10/05 13:02:15;;;;;;;10.48;3.33;;;;;;;15.05;100.00;101992.97;6300035;28;20051;-73
2023/10/05 13:05:18;;;;;;;5.80;2.15;;;;;;;15.12;100.00;101996.97;6300382;28;20051;-75
2023/10/05 13:08:20;;;;;;;11.90;2.95;;;;;;;15.16;100.00;101988.78;6299719;28;20052;-72
2023/10/05 13:11:22;;;;;;;9.82;2.55;;;;;;;15.22;100.00;101987.63;6299700;28;20052;-74
2023/10/05 13:14:24;;;;;;;4.60;1.95;;;;;;;15.45;100.00;101983.75;6299934;28;20048;-74
2023/10/05 13:17:25;;;;;;;10.25;2.15;;;;;;;15.51;100.00;101995.81;6300151;28;20053;-73
2023/10/05 13:20:27;;;;;;;4.00;1.80;;;;;;;15.52;100.00;101990.41;6299766;28;20352;-74
2023/10/05 13:23:30;;;;;;;8.40;2.20;;;;;;;15.56;100.00;101991.13;6300386;28;20053;-74
2023/10/05 13:26:33;;;;;;;12.25;2.15;;;;;;;15.48;100.00;101995.03;6300212;28;20052;-74
2023/10/05 13:29:42;;;;;;;5.70;1.13;;;;;;;15.38;100.00;101993.81;6299605;28;20359;-74
2023/10/05 13:32:43;;;;;;;6.03;1.50;;;;;;;15.45;100.00;101981.09;6299786;28;20056;-74
2023/10/05 13:35:47;;;;;;;6.20;1.65;;;;;;;15.42;100.00;101986.56;6299717;28;20471;-73
2023/10/05 13:38:48;;;;;;;4.72;1.65;;;;;;;15.53;100.00;101997.41;6299723;28;20348;-75
2023/10/05 13:41:59;;;;;;;6.28;1.40;;;;;;;15.34;100.00;102012.59;6297623;28;20322;-73
2023/10/05 13:45:09;;;;;;;8.63;1.67;;;;;;;15.15;100.00;102004.78;6299849;28;20178;-72
2023/10/05 13:48:11;;;;;;;5.47;1.65;;;;;;;15.06;100.00;102022.00;6299436;28;20376;-71
2023/10/05 13:51:15;;;;;;;9.10;2.42;;;;;;;14.89;100.00;102014.06;6298682;28;20052;-70
2023/10/05 13:54:18;;;;;;;7.38;1.92;;;;;;;14.90;100.00;102008.69;6299314;28;20419;-71
2023/10/05 13:57:21;;;;;;;3.30;1.52;;;;;;;14.99;100.00;102010.03;6299908;28;20053;-70
2023/10/05 14:00:25;;;;;;;6.85;2.00;;;;;;;14.88;100.00;102012.34;6298651;28;20045;-72
2023/10/05 14:03:26;;;;;;;4.07;1.73;;;;;;;14.78;100.00;102019.91;6299363;28;20073;-72
2023/10/05 14:06:29;;;;;;;4.20;2.08;;;;;;;14.83;100.00;102011.72;6299231;28;20044;-73